createdAt,value
2019-02-23T00:00:03.433Z,0
2019-02-23T00:01:03.628Z,0
2019-02-23T00:02:03.369Z,0
2019-02-23T00:03:02.833Z,0
2019-02-23T00:04:03.762Z,0
2019-02-23T00:05:03.758Z,0
2019-02-23T00:06:02.900Z,0
2019-02-23T00:07:03.320Z,0
2019-02-23T00:08:03.709Z,0
2019-02-23T00:09:03.009Z,0
2019-02-23T00:10:03.545Z,0
2019-02-23T00:11:03.011Z,0
2019-02-23T00:12:05.031Z,0
2019-02-23T00:13:03.120Z,0
2019-02-23T00:14:03.171Z,0
2019-02-23T00:15:03.777Z,0
2019-02-23T00:16:02.809Z,0
2019-02-23T00:17:03.993Z,0
2019-02-23T00:18:03.243Z,0
2019-02-23T00:19:03.363Z,1.1
2019-02-23T00:20:03.279Z,1.1
2019-02-23T00:21:03.646Z,1.1
2019-02-23T00:22:03.010Z,1.1
2019-02-23T00:23:03.582Z,1.1
2019-02-23T00:24:03.620Z,1.1
2019-02-23T00:25:03.328Z,1.1
2019-02-23T00:26:03.825Z,1.1
2019-02-23T00:27:03.237Z,0
2019-02-23T00:28:03.597Z,0
2019-02-23T00:29:03.246Z,1.1
2019-02-23T00:30:03.003Z,1.1
2019-02-23T00:31:03.541Z,1.1
2019-02-23T00:32:03.297Z,1.1
2019-02-23T00:33:03.691Z,1.1
2019-02-23T00:34:03.183Z,1.1
2019-02-23T00:35:03.847Z,1.1
2019-02-23T00:36:03.014Z,1.1
2019-02-23T00:37:03.447Z,1.1
2019-02-23T00:38:03.757Z,1.1
2019-02-23T00:39:03.226Z,2.5
2019-02-23T00:40:02.917Z,2.5
2019-02-23T00:41:02.897Z,1.1
2019-02-23T00:42:03.619Z,0
2019-02-23T00:43:02.987Z,0
2019-02-23T00:44:03.259Z,0
2019-02-23T00:45:03.737Z,0
2019-02-23T00:46:03.296Z,0
2019-02-23T00:47:03.877Z,0
2019-02-23T00:48:03.151Z,0
2019-02-23T00:49:03.508Z,0
2019-02-23T00:50:03.231Z,0
2019-02-23T00:51:03.784Z,0
2019-02-23T00:52:03.211Z,0
2019-02-23T00:53:03.361Z,0
2019-02-23T00:54:02.823Z,1.1
2019-02-23T00:55:03.667Z,0
2019-02-23T00:56:02.853Z,0
2019-02-23T00:57:03.679Z,0
2019-02-23T00:58:03.757Z,0
2019-02-23T00:59:02.963Z,0
2019-02-23T01:00:03.480Z,0
2019-02-23T01:01:03.122Z,0
2019-02-23T01:02:03.901Z,0
2019-02-23T01:03:03.168Z,0
2019-02-23T01:04:03.581Z,0
2019-02-23T01:05:03.238Z,0
2019-02-23T01:06:03.304Z,0
2019-02-23T01:07:03.626Z,0
2019-02-23T01:08:03.214Z,0
2019-02-23T01:09:02.757Z,0
2019-02-23T01:10:03.430Z,0
2019-02-23T01:11:03.125Z,0
2019-02-23T01:12:03.551Z,0
2019-02-23T01:13:03.067Z,0
2019-02-23T01:14:03.207Z,0
2019-02-23T01:15:04.029Z,0
2019-02-23T01:16:03.297Z,0
2019-02-23T01:17:03.737Z,0
2019-02-23T01:18:02.954Z,0
2019-02-23T01:19:03.390Z,0
2019-02-23T01:20:03.711Z,0
2019-02-23T01:21:03.483Z,0
2019-02-23T01:22:03.639Z,0
2019-02-23T01:23:03.175Z,0
2019-02-23T01:24:03.665Z,0
2019-02-23T01:25:02.763Z,0
2019-02-23T01:26:03.166Z,0
2019-02-23T01:27:03.874Z,0
2019-02-23T01:28:03.280Z,0
2019-02-23T01:29:03.439Z,0
2019-02-23T01:30:03.128Z,0
2019-02-23T01:31:03.250Z,0
2019-02-23T01:32:03.124Z,0
2019-02-23T01:33:03.215Z,0
2019-02-23T01:34:03.400Z,0
2019-02-23T01:35:03.109Z,0
2019-02-23T01:36:03.927Z,0
2019-02-23T01:37:03.065Z,0
2019-02-23T01:38:03.785Z,0
2019-02-23T01:39:02.997Z,0
2019-02-23T01:40:03.866Z,1.1
2019-02-23T01:41:03.337Z,0
2019-02-23T01:42:03.674Z,0
2019-02-23T01:43:03.148Z,0
2019-02-23T01:44:03.116Z,0
2019-02-23T01:45:03.558Z,1.1
2019-02-23T01:46:03.058Z,0
2019-02-23T01:47:03.836Z,0
2019-02-23T01:48:03.100Z,0
2019-02-23T01:49:03.750Z,0
2019-02-23T01:50:03.106Z,0
2019-02-23T01:51:03.680Z,0
2019-02-23T01:52:02.962Z,1.1
2019-02-23T01:53:03.672Z,0
2019-02-23T01:54:02.873Z,0
2019-02-23T01:55:03.683Z,1.1
2019-02-23T01:56:03.653Z,1.1
2019-02-23T01:57:03.180Z,1.1
2019-02-23T01:58:03.599Z,1.1
2019-02-23T01:59:03.265Z,1.1
2019-02-23T02:00:03.672Z,0
2019-02-23T02:01:03.025Z,1.1
2019-02-23T02:02:02.933Z,0
2019-02-23T02:03:03.020Z,0
2019-02-23T02:04:03.656Z,0
2019-02-23T02:05:03.107Z,1.1
2019-02-23T02:06:03.635Z,1.1
2019-02-23T02:07:03.512Z,1.1
2019-02-23T02:08:03.523Z,1.1
2019-02-23T02:09:03.409Z,0
2019-02-23T02:10:03.831Z,1.1
2019-02-23T02:11:03.020Z,1.1
2019-02-23T02:12:03.650Z,1.1
2019-02-23T02:13:02.903Z,1.1
2019-02-23T02:14:03.666Z,1.1
2019-02-23T02:15:02.970Z,1.1
2019-02-23T02:16:03.157Z,1.1
2019-02-23T02:17:02.911Z,1.1
2019-02-23T02:18:03.652Z,1.1
2019-02-23T02:19:03.913Z,1.1
2019-02-23T02:20:11.936Z,0
2019-02-23T02:21:03.607Z,2.5
2019-02-23T02:22:03.788Z,1.1
2019-02-23T02:23:03.180Z,0
2019-02-23T02:24:03.006Z,1.1
2019-02-23T02:25:03.340Z,2.5
2019-02-23T02:26:02.992Z,1.1
2019-02-23T02:27:03.402Z,1.1
2019-02-23T02:28:03.011Z,1.1
2019-02-23T02:29:03.340Z,0
2019-02-23T02:30:03.081Z,0
2019-02-23T02:31:03.540Z,0
2019-02-23T02:32:03.946Z,1.1
2019-02-23T02:33:03.216Z,0
2019-02-23T02:34:03.601Z,0
2019-02-23T02:35:03.173Z,1.1
2019-02-23T02:36:03.473Z,1.1
2019-02-23T02:37:03.045Z,1.1
2019-02-23T02:38:03.448Z,1.1
2019-02-23T02:39:03.014Z,0
2019-02-23T02:40:04.057Z,2.5
2019-02-23T02:41:02.917Z,2.5
2019-02-23T02:42:03.321Z,1.1
2019-02-23T02:43:03.072Z,0
2019-02-23T02:44:03.535Z,1.1
2019-02-23T02:45:03.268Z,2.5
2019-02-23T02:46:03.542Z,0
2019-02-23T02:47:02.954Z,1.1
2019-02-23T02:48:03.587Z,0
2019-02-23T02:49:03.194Z,0
2019-02-23T02:50:03.743Z,0
2019-02-23T02:51:03.155Z,1.1
2019-02-23T02:52:03.647Z,0
2019-02-23T02:53:03.699Z,0
2019-02-23T02:54:03.427Z,0
2019-02-23T02:55:02.667Z,1.1
2019-02-23T02:56:03.582Z,1.1
2019-02-23T02:57:02.634Z,1.1
2019-02-23T02:58:03.769Z,1.1
2019-02-23T02:59:03.154Z,0
2019-02-23T03:00:03.700Z,2.5
2019-02-23T03:01:03.821Z,1.1
2019-02-23T03:02:03.567Z,1.1
2019-02-23T03:03:03.661Z,1.1
2019-02-23T03:04:03.579Z,1.1
2019-02-23T03:05:03.814Z,1.1
2019-02-23T03:06:03.386Z,1.1
2019-02-23T03:07:03.668Z,1.1
2019-02-23T03:08:03.356Z,1.1
2019-02-23T03:09:03.692Z,1.1
2019-02-23T03:10:02.831Z,1.1
2019-02-23T03:11:03.862Z,2.5
2019-02-23T03:12:02.972Z,2.5
2019-02-23T03:13:03.735Z,1.1
2019-02-23T03:14:03.142Z,1.1
2019-02-23T03:15:03.404Z,0
2019-02-23T03:16:03.254Z,0
2019-02-23T03:17:03.555Z,0
2019-02-23T03:18:03.053Z,0
2019-02-23T03:19:03.545Z,0
2019-02-23T03:20:03.001Z,0
2019-02-23T03:21:03.429Z,0
2019-02-23T03:22:02.870Z,1.1
2019-02-23T03:23:03.703Z,0
2019-02-23T03:24:04.044Z,0
2019-02-23T03:25:03.534Z,0
2019-02-23T03:26:03.750Z,1.1
2019-02-23T03:27:03.324Z,0
2019-02-23T03:28:03.818Z,0
2019-02-23T03:29:03.253Z,0
2019-02-23T03:30:03.454Z,0
2019-02-23T03:31:03.522Z,0
2019-02-23T03:32:03.084Z,0
2019-02-23T03:33:03.293Z,0
2019-02-23T03:34:03.100Z,0
2019-02-23T03:35:03.563Z,0
2019-02-23T03:36:03.813Z,0
2019-02-23T03:37:03.512Z,0
2019-02-23T03:38:02.864Z,0
2019-02-23T03:39:03.869Z,0
2019-02-23T03:40:02.956Z,0
2019-02-23T03:41:03.320Z,0
2019-02-23T03:42:02.982Z,0
2019-02-23T03:43:03.562Z,0
2019-02-23T03:44:03.861Z,0
2019-02-23T03:45:03.294Z,0
2019-02-23T03:46:03.892Z,0
2019-02-23T03:47:03.469Z,0
2019-02-23T03:48:03.108Z,0
2019-02-23T03:49:03.476Z,0
2019-02-23T03:50:03.094Z,0
2019-02-23T03:51:03.069Z,0
2019-02-23T03:52:02.906Z,0
2019-02-23T03:53:03.360Z,0
2019-02-23T03:54:03.018Z,0
2019-02-23T03:55:03.629Z,0
2019-02-23T03:56:03.680Z,0
2019-02-23T03:57:03.387Z,0
2019-02-23T03:58:02.976Z,0
2019-02-23T03:59:03.537Z,0
2019-02-23T04:00:03.070Z,0
2019-02-23T04:01:03.517Z,0
2019-02-23T04:02:03.056Z,0
2019-02-23T04:03:03.909Z,0
2019-02-23T04:04:03.700Z,0
2019-02-23T04:05:03.554Z,0
2019-02-23T04:06:03.829Z,0
2019-02-23T04:07:03.310Z,0
2019-02-23T04:08:03.763Z,0
2019-02-23T04:09:03.305Z,0
2019-02-23T04:10:03.454Z,0
2019-02-23T04:11:03.646Z,0
2019-02-23T04:12:03.769Z,0
2019-02-23T04:13:03.415Z,0
2019-02-23T04:14:03.629Z,0
2019-02-23T04:15:03.379Z,0
2019-02-23T04:16:03.657Z,0
2019-02-23T04:17:03.485Z,0
2019-02-23T04:18:03.723Z,0
2019-02-23T04:19:03.267Z,0
2019-02-23T04:20:03.711Z,0
2019-02-23T04:21:03.178Z,0
2019-02-23T04:22:03.279Z,0
2019-02-23T04:23:03.120Z,0
2019-02-23T04:24:03.777Z,0
2019-02-23T04:25:03.551Z,0
2019-02-23T04:26:03.716Z,0
2019-02-23T04:27:03.324Z,0
2019-02-23T04:28:03.533Z,0
2019-02-23T04:29:02.808Z,0
2019-02-23T04:30:03.313Z,0
2019-02-23T04:31:03.821Z,0
2019-02-23T04:32:03.536Z,0
2019-02-23T04:33:03.625Z,0
2019-02-23T04:34:03.452Z,0
2019-02-23T04:35:03.926Z,0
2019-02-23T04:36:03.622Z,0
2019-02-23T04:37:03.748Z,0
2019-02-23T04:38:03.431Z,0
2019-02-23T04:39:03.650Z,0
2019-02-23T04:40:03.157Z,0
2019-02-23T04:41:03.267Z,0
2019-02-23T04:42:03.092Z,1.1
2019-02-23T04:43:03.355Z,0
2019-02-23T04:44:03.093Z,0
2019-02-23T04:45:03.529Z,2.5
2019-02-23T04:46:02.972Z,2.5
2019-02-23T04:47:03.417Z,2.5
2019-02-23T04:48:03.259Z,1.1
2019-02-23T04:49:03.618Z,1.1
2019-02-23T04:50:03.211Z,1.1
2019-02-23T04:51:15.202Z,1.1
2019-02-23T04:52:03.164Z,0
2019-02-23T04:53:03.576Z,1.1
2019-02-23T04:54:03.037Z,1.1
2019-02-23T04:55:03.546Z,2.5
2019-02-23T04:56:02.962Z,1.1
2019-02-23T04:57:03.234Z,1.1
2019-02-23T04:58:03.711Z,2.5
2019-02-23T04:59:02.982Z,1.1
2019-02-23T05:00:03.520Z,1.1
2019-02-23T05:01:03.057Z,0
2019-02-23T05:02:03.568Z,0
2019-02-23T05:03:03.119Z,0
2019-02-23T05:04:03.397Z,0
2019-02-23T05:05:02.997Z,0
2019-02-23T05:06:03.281Z,0
2019-02-23T05:07:03.676Z,0
2019-02-23T05:08:02.990Z,0
2019-02-23T05:09:03.712Z,1.1
2019-02-23T05:10:03.185Z,0
2019-02-23T05:11:02.996Z,0
2019-02-23T05:12:03.804Z,0
2019-02-23T05:13:02.940Z,1.1
2019-02-23T05:14:03.861Z,1.1
2019-02-23T05:15:03.205Z,2.5
2019-02-23T05:16:03.795Z,2.5
2019-02-23T05:17:02.766Z,2.5
2019-02-23T05:18:03.443Z,1.1
2019-02-23T05:19:03.830Z,1.1
2019-02-23T05:20:03.362Z,1.1
2019-02-23T05:21:03.277Z,1.1
2019-02-23T05:22:03.172Z,1.1
2019-02-23T05:23:03.547Z,0
2019-02-23T05:24:02.987Z,1.1
2019-02-23T05:25:03.581Z,0
2019-02-23T05:26:02.913Z,1.1
2019-02-23T05:27:03.449Z,1.1
2019-02-23T05:28:02.908Z,1.1
2019-02-23T05:29:03.417Z,0
2019-02-23T05:30:04.055Z,1.1
2019-02-23T05:31:02.916Z,1.1
2019-02-23T05:32:03.291Z,1.1
2019-02-23T05:33:02.773Z,0
2019-02-23T05:34:03.185Z,1.1
2019-02-23T05:35:03.298Z,0
2019-02-23T05:36:03.208Z,1.1
2019-02-23T05:37:02.953Z,1.1
2019-02-23T05:38:03.250Z,0
2019-02-23T05:39:03.748Z,1.1
2019-02-23T05:40:03.432Z,0
2019-02-23T05:41:03.060Z,0
2019-02-23T05:42:03.098Z,0
2019-02-23T05:43:03.571Z,0
2019-02-23T05:44:03.169Z,0
2019-02-23T05:45:03.959Z,0
2019-02-23T05:46:03.257Z,0
2019-02-23T05:47:03.681Z,0
2019-02-23T05:48:03.129Z,0
2019-02-23T05:49:03.418Z,1.1
2019-02-23T05:50:03.272Z,2.5
2019-02-23T05:51:03.533Z,2.5
2019-02-23T05:52:03.120Z,1.1
2019-02-23T05:53:03.454Z,0
2019-02-23T05:54:02.758Z,1.1
2019-02-23T05:55:03.073Z,0
2019-02-23T05:56:03.917Z,0
2019-02-23T05:57:03.950Z,0
2019-02-23T05:58:03.398Z,0
2019-02-23T05:59:03.789Z,0
2019-02-23T06:00:03.405Z,0
2019-02-23T06:01:03.796Z,0
2019-02-23T06:02:03.761Z,1.1
2019-02-23T06:03:03.871Z,1.1
2019-02-23T06:04:03.204Z,0
2019-02-23T06:05:03.766Z,1.1
2019-02-23T06:06:03.377Z,1.1
2019-02-23T06:07:03.951Z,1.1
2019-02-23T06:08:03.253Z,1.1
2019-02-23T06:09:03.226Z,1.1
2019-02-23T06:10:02.993Z,1.1
2019-02-23T06:11:03.471Z,1.1
2019-02-23T06:12:03.001Z,0
2019-02-23T06:13:03.349Z,0
2019-02-23T06:14:03.474Z,1.1
2019-02-23T06:15:03.377Z,0
2019-02-23T06:16:03.145Z,0
2019-02-23T06:17:04.541Z,0
2019-02-23T06:18:03.504Z,0
2019-02-23T06:19:03.772Z,0
2019-02-23T06:20:03.396Z,0
2019-02-23T06:21:03.599Z,0
2019-02-23T06:22:02.887Z,0
2019-02-23T06:23:03.888Z,0
2019-02-23T06:24:03.218Z,0
2019-02-23T06:25:03.807Z,0
2019-02-23T06:26:03.385Z,0
2019-02-23T06:27:03.534Z,0
2019-02-23T06:28:02.967Z,0
2019-02-23T06:29:03.737Z,0
2019-02-23T06:30:03.381Z,0
2019-02-23T06:31:03.792Z,0
2019-02-23T06:32:02.767Z,0
2019-02-23T06:33:03.304Z,0
2019-02-23T06:34:17.114Z,0
2019-02-23T06:35:03.487Z,0
2019-02-23T06:36:03.780Z,0
2019-02-23T06:37:02.988Z,0
2019-02-23T06:38:03.850Z,0
2019-02-23T06:39:02.786Z,0
2019-02-23T06:40:03.370Z,0
2019-02-23T06:41:03.812Z,0
2019-02-23T06:42:03.468Z,0
2019-02-23T06:43:03.778Z,0
2019-02-23T06:44:03.213Z,1.1
2019-02-23T06:45:03.491Z,0
2019-02-23T06:46:03.028Z,0
2019-02-23T06:47:03.585Z,0
2019-02-23T06:48:03.001Z,0
2019-02-23T06:49:03.644Z,0
2019-02-23T06:50:03.373Z,0
2019-02-23T06:51:03.507Z,0
2019-02-23T06:52:05.021Z,0
2019-02-23T06:53:03.200Z,0
2019-02-23T06:54:03.617Z,1.1
2019-02-23T06:55:03.178Z,1.1
2019-02-23T06:56:03.988Z,0
2019-02-23T06:57:02.982Z,2.5
2019-02-23T06:58:03.424Z,1.1
2019-02-23T06:59:03.022Z,0
2019-02-23T07:00:02.773Z,1.1
2019-02-23T07:01:03.077Z,2.5
2019-02-23T07:02:03.811Z,2.5
2019-02-23T07:03:03.274Z,2.5
2019-02-23T07:04:04.207Z,2.5
2019-02-23T07:05:03.251Z,2.5
2019-02-23T07:06:03.692Z,2.5
2019-02-23T07:07:03.355Z,2.5
2019-02-23T07:08:03.818Z,2.5
2019-02-23T07:09:03.198Z,0
2019-02-23T07:10:03.705Z,1.1
2019-02-23T07:11:03.091Z,1.1
2019-02-23T07:12:03.274Z,2.5
2019-02-23T07:13:03.825Z,1.1
2019-02-23T07:14:03.113Z,1.1
2019-02-23T07:15:02.910Z,1.1
2019-02-23T07:16:03.019Z,0
2019-02-23T07:17:05.529Z,0
2019-02-23T07:18:02.735Z,1.1
2019-02-23T07:19:03.203Z,2.5
2019-02-23T07:20:03.835Z,1.1
2019-02-23T07:21:03.058Z,3.6
2019-02-23T07:22:02.866Z,7.2
2019-02-23T07:23:03.188Z,5
2019-02-23T07:24:03.874Z,7.2
2019-02-23T07:25:03.101Z,2.5
2019-02-23T07:26:02.775Z,1.1
2019-02-23T07:27:03.232Z,1.1
2019-02-23T07:28:03.862Z,1.1
2019-02-23T07:29:03.357Z,1.1
2019-02-23T07:30:03.992Z,2.5
2019-02-23T07:31:03.007Z,3.6
2019-02-23T07:32:02.969Z,5
2019-02-23T07:33:03.327Z,1.1
2019-02-23T07:34:03.036Z,1.1
2019-02-23T07:35:03.600Z,1.1
2019-02-23T07:36:02.825Z,1.1
2019-02-23T07:37:03.312Z,1.1
2019-02-23T07:38:03.223Z,1.1
2019-02-23T07:39:03.318Z,1.1
2019-02-23T07:40:03.454Z,1.1
2019-02-23T07:41:03.292Z,1.1
2019-02-23T07:42:03.747Z,1.1
2019-02-23T07:43:03.380Z,1.1
2019-02-23T07:44:03.759Z,1.1
2019-02-23T07:45:03.120Z,1.1
2019-02-23T07:46:03.612Z,1.1
2019-02-23T07:47:03.144Z,1.1
2019-02-23T07:48:03.466Z,1.1
2019-02-23T07:49:03.685Z,1.1
2019-02-23T07:50:03.154Z,1.1
2019-02-23T07:51:03.070Z,1.1
2019-02-23T07:52:03.080Z,1.1
2019-02-23T07:53:02.839Z,1.1
2019-02-23T07:54:03.341Z,1.1
2019-02-23T07:55:03.615Z,1.1
2019-02-23T07:56:03.302Z,1.1
2019-02-23T07:57:03.033Z,1.1
2019-02-23T07:58:03.039Z,1.1
2019-02-23T07:59:03.724Z,1.1
2019-02-23T08:00:03.198Z,1.1
2019-02-23T08:01:03.835Z,1.1
2019-02-23T08:02:03.065Z,1.1
2019-02-23T08:03:03.482Z,1.1
2019-02-23T08:04:03.610Z,1.1
2019-02-23T08:05:03.727Z,1.1
2019-02-23T08:06:03.802Z,1.1
2019-02-23T08:07:03.722Z,1.1
2019-02-23T08:08:02.739Z,1.1
2019-02-23T08:09:03.549Z,1.1
2019-02-23T08:10:03.961Z,1.1
2019-02-23T08:11:03.386Z,1.1
2019-02-23T08:12:03.131Z,1.1
2019-02-23T08:13:03.283Z,1.1
2019-02-23T08:14:03.822Z,1.1
2019-02-23T08:15:03.587Z,1.1
2019-02-23T08:16:02.931Z,1.1
2019-02-23T08:17:03.361Z,1.1
2019-02-23T08:18:02.870Z,1.1
2019-02-23T08:19:03.349Z,1.1
2019-02-23T08:20:02.736Z,1.1
2019-02-23T08:21:03.271Z,1.1
2019-02-23T08:22:02.876Z,1.1
2019-02-23T08:23:03.236Z,1.1
2019-02-23T08:24:03.812Z,1.1
2019-02-23T08:25:03.317Z,1.1
2019-02-23T08:26:03.856Z,1.1
2019-02-23T08:27:03.088Z,1.1
2019-02-23T08:28:03.523Z,1.1
2019-02-23T08:29:02.815Z,1.1
2019-02-23T08:30:03.745Z,1.1
2019-02-23T08:31:02.918Z,1.1
2019-02-23T08:32:03.233Z,1.1
2019-02-23T08:33:03.620Z,1.1
2019-02-23T08:34:03.205Z,1.1
2019-02-23T08:35:03.872Z,2.5
2019-02-23T08:36:03.442Z,3.6
2019-02-23T08:37:02.808Z,8.6
2019-02-23T08:38:03.082Z,5
2019-02-23T08:39:03.647Z,6.1
2019-02-23T08:40:02.949Z,5
2019-02-23T08:41:03.630Z,3.6
2019-02-23T08:42:03.182Z,3.6
2019-02-23T08:43:03.439Z,3.6
2019-02-23T08:44:03.044Z,6.1
2019-02-23T08:45:03.458Z,6.1
2019-02-23T08:46:03.074Z,3.6
2019-02-23T08:47:03.787Z,5
2019-02-23T08:48:03.181Z,5
2019-02-23T08:49:03.867Z,5
2019-02-23T08:50:03.535Z,5
2019-02-23T08:51:03.827Z,5
2019-02-23T08:52:03.342Z,5
2019-02-23T08:53:03.648Z,3.6
2019-02-23T08:54:03.089Z,8.6
2019-02-23T08:55:03.367Z,7.2
2019-02-23T08:56:02.872Z,6.1
2019-02-23T08:57:03.536Z,7.2
2019-02-23T08:58:03.756Z,7.2
2019-02-23T08:59:03.191Z,8.6
2019-02-23T09:00:03.732Z,3.6
2019-02-23T09:01:02.846Z,5
2019-02-23T09:02:03.507Z,5
2019-02-23T09:03:03.632Z,5
2019-02-23T09:04:03.554Z,5
2019-02-23T09:05:03.053Z,5
2019-02-23T09:06:03.242Z,5
2019-02-23T09:07:03.601Z,5
2019-02-23T09:08:03.561Z,5
2019-02-23T09:09:03.022Z,6.1
2019-02-23T09:10:03.344Z,5
2019-02-23T09:11:03.667Z,7.2
2019-02-23T09:12:02.999Z,3.6
2019-02-23T09:13:03.605Z,6.1
2019-02-23T09:14:02.797Z,3.6
2019-02-23T09:15:03.591Z,3.6
2019-02-23T09:16:03.684Z,5
2019-02-23T09:17:03.742Z,6.1
2019-02-23T09:18:03.830Z,6.1
2019-02-23T09:19:03.431Z,6.1
2019-02-23T09:20:03.453Z,7.2
2019-02-23T09:21:03.097Z,7.2
2019-02-23T09:22:03.465Z,6.1
2019-02-23T09:23:02.814Z,6.1
2019-02-23T09:24:03.269Z,8.6
2019-02-23T09:25:03.911Z,7.2
2019-02-23T09:26:03.093Z,5
2019-02-23T09:27:03.431Z,7.2
2019-02-23T09:28:03.166Z,6.1
2019-02-23T09:29:03.896Z,6.1
2019-02-23T09:30:03.778Z,7.2
2019-02-23T09:31:03.880Z,6.1
2019-02-23T09:32:03.711Z,7.2
2019-02-23T09:33:03.528Z,5
2019-02-23T09:34:03.907Z,6.1
2019-02-23T09:35:03.577Z,5
2019-02-23T09:36:03.588Z,7.2
2019-02-23T09:37:03.393Z,7.2
2019-02-23T09:38:03.635Z,7.2
2019-02-23T09:39:03.700Z,6.1
2019-02-23T09:40:03.705Z,9.7
2019-02-23T09:41:02.997Z,8.6
2019-02-23T09:42:08.023Z,9.7
2019-02-23T09:43:03.448Z,9.7
2019-02-23T09:44:02.860Z,6.1
2019-02-23T09:45:03.075Z,6.1
2019-02-23T09:46:03.743Z,7.2
2019-02-23T09:47:03.797Z,6.1
2019-02-23T09:48:03.568Z,3.6
2019-02-23T09:49:02.975Z,3.6
2019-02-23T09:50:03.542Z,6.1
2019-02-23T09:51:03.658Z,6.1
2019-02-23T09:52:03.601Z,7.2
2019-02-23T09:53:11.819Z,7.2
2019-02-23T09:54:03.088Z,6.1
2019-02-23T09:55:03.572Z,6.1
2019-02-23T09:56:02.856Z,6.1
2019-02-23T09:57:03.567Z,8.6
2019-02-23T09:58:03.070Z,6.1
2019-02-23T09:59:03.427Z,5
2019-02-23T10:00:03.160Z,7.2
2019-02-23T10:01:03.681Z,6.1
2019-02-23T10:02:03.060Z,7.2
2019-02-23T10:03:03.710Z,11.2
2019-02-23T10:04:04.157Z,8.6
2019-02-23T10:05:03.452Z,6.1
2019-02-23T10:06:03.524Z,12.2
2019-02-23T10:07:03.359Z,5
2019-02-23T10:08:03.343Z,3.6
2019-02-23T10:09:02.850Z,6.1
2019-02-23T10:10:03.322Z,5
2019-02-23T10:11:02.888Z,5
2019-02-23T10:12:03.573Z,6.1
2019-02-23T10:13:04.058Z,7.2
2019-02-23T10:14:03.175Z,6.1
2019-02-23T10:15:03.847Z,6.1
2019-02-23T10:16:03.268Z,5
2019-02-23T10:17:03.749Z,5
2019-02-23T10:18:03.282Z,3.6
2019-02-23T10:19:03.669Z,5
2019-02-23T10:20:03.331Z,8.6
2019-02-23T10:21:03.899Z,5
2019-02-23T10:22:03.093Z,7.2
2019-02-23T10:23:02.854Z,11.2
2019-02-23T10:24:03.465Z,7.2
2019-02-23T10:25:03.959Z,7.2
2019-02-23T10:26:03.835Z,5
2019-02-23T10:27:02.942Z,5
2019-02-23T10:28:03.798Z,5
2019-02-23T10:29:03.196Z,6.1
2019-02-23T10:30:03.768Z,8.6
2019-02-23T10:31:03.894Z,7.2
2019-02-23T10:32:03.887Z,6.1
2019-02-23T10:33:03.150Z,7.2
2019-02-23T10:34:03.871Z,9.7
2019-02-23T10:35:03.048Z,5
2019-02-23T10:36:03.655Z,8.6
2019-02-23T10:37:03.096Z,7.2
2019-02-23T10:38:04.009Z,5
2019-02-23T10:39:03.397Z,7.2
2019-02-23T10:40:04.056Z,6.1
2019-02-23T10:41:03.474Z,7.2
2019-02-23T10:42:02.984Z,7.2
2019-02-23T10:43:03.652Z,7.2
2019-02-23T10:44:03.188Z,6.1
2019-02-23T10:45:03.325Z,5
2019-02-23T10:46:03.759Z,7.2
2019-02-23T10:47:02.894Z,6.1
2019-02-23T10:48:03.718Z,6.1
2019-02-23T10:49:02.951Z,7.2
2019-02-23T10:50:03.566Z,6.1
2019-02-23T10:51:02.968Z,7.2
2019-02-23T10:52:03.486Z,5
2019-02-23T10:53:03.001Z,11.2
2019-02-23T10:54:03.405Z,7.2
2019-02-23T10:55:03.694Z,6.1
2019-02-23T10:56:03.347Z,7.2
2019-02-23T10:57:03.910Z,7.2
2019-02-23T10:58:03.182Z,9.7
2019-02-23T10:59:03.663Z,9.7
2019-02-23T11:00:04.158Z,6.1
2019-02-23T11:01:03.014Z,7.2
2019-02-23T11:02:03.694Z,7.2
2019-02-23T11:03:03.434Z,7.2
2019-02-23T11:04:02.888Z,7.2
2019-02-23T11:05:03.175Z,7.2
2019-02-23T11:06:03.455Z,7.2
2019-02-23T11:07:03.977Z,7.2
2019-02-23T11:08:03.567Z,7.2
2019-02-23T11:09:03.169Z,12.2
2019-02-23T11:10:03.311Z,8.6
2019-02-23T11:11:03.895Z,14.8
2019-02-23T11:12:03.871Z,9.7
2019-02-23T11:13:03.715Z,5
2019-02-23T11:14:03.947Z,6.1
2019-02-23T11:15:03.018Z,5
2019-02-23T11:16:03.786Z,6.1
2019-02-23T11:17:03.334Z,11.2
2019-02-23T11:18:03.882Z,8.6
2019-02-23T11:19:03.375Z,13.3
2019-02-23T11:20:03.836Z,12.2
2019-02-23T11:21:03.128Z,9.7
2019-02-23T11:22:03.676Z,11.2
2019-02-23T11:23:03.272Z,3.6
2019-02-23T11:24:03.692Z,11.2
2019-02-23T11:25:03.181Z,6.1
2019-02-23T11:26:03.386Z,9.7
2019-02-23T11:27:02.962Z,8.6
2019-02-23T11:28:03.571Z,5
2019-02-23T11:29:03.058Z,8.6
2019-02-23T11:30:03.859Z,8.6
2019-02-23T11:31:03.017Z,6.1
2019-02-23T11:32:03.564Z,11.2
2019-02-23T11:33:03.742Z,8.6
2019-02-23T11:34:03.417Z,7.2
2019-02-23T11:35:04.129Z,6.1
2019-02-23T11:36:03.603Z,7.2
2019-02-23T11:37:02.945Z,7.2
2019-02-23T11:38:03.453Z,7.2
2019-02-23T11:39:03.894Z,9.7
2019-02-23T11:40:03.327Z,6.1
2019-02-23T11:41:02.803Z,6.1
2019-02-23T11:42:03.372Z,6.1
2019-02-23T11:43:03.184Z,5
2019-02-23T11:44:03.089Z,6.1
2019-02-23T11:45:03.841Z,8.6
2019-02-23T11:46:03.288Z,7.2
2019-02-23T11:47:03.739Z,8.6
2019-02-23T11:48:03.099Z,6.1
2019-02-23T11:49:03.771Z,6.1
2019-02-23T11:50:03.983Z,3.6
2019-02-23T11:51:03.265Z,7.2
2019-02-23T11:52:03.638Z,8.6
2019-02-23T11:53:03.333Z,11.2
2019-02-23T11:54:03.873Z,11.2
2019-02-23T11:55:03.239Z,11.2
2019-02-23T11:56:03.630Z,12.2
2019-02-23T11:57:03.059Z,12.2
2019-02-23T11:58:03.535Z,8.6
2019-02-23T11:59:04.050Z,8.6
2019-02-23T12:00:03.658Z,5
2019-02-23T12:01:03.959Z,9.7
2019-02-23T12:02:03.462Z,7.2
2019-02-23T12:03:03.655Z,6.1
2019-02-23T12:04:03.334Z,5
2019-02-23T12:05:03.695Z,7.2
2019-02-23T12:06:03.054Z,7.2
2019-02-23T12:07:03.618Z,8.6
2019-02-23T12:08:03.527Z,7.2
2019-02-23T12:09:03.660Z,5
2019-02-23T12:10:03.284Z,5
2019-02-23T12:11:03.545Z,7.2
2019-02-23T12:12:03.002Z,3.6
2019-02-23T12:13:03.906Z,6.1
2019-02-23T12:14:03.215Z,7.2
2019-02-23T12:15:03.495Z,11.2
2019-02-23T12:16:03.974Z,7.2
2019-02-23T12:17:03.296Z,3.6
2019-02-23T12:18:04.053Z,7.2
2019-02-23T12:19:03.352Z,8.6
2019-02-23T12:20:03.998Z,9.7
2019-02-23T12:21:03.303Z,5
2019-02-23T12:22:13.069Z,11.2
2019-02-23T12:23:02.894Z,15.8
2019-02-23T12:24:06.784Z,9.7
2019-02-23T12:25:03.743Z,9.7
2019-02-23T12:26:03.108Z,12.2
2019-02-23T12:27:03.874Z,7.2
2019-02-23T12:28:03.750Z,7.2
2019-02-23T12:29:03.728Z,5
2019-02-23T12:30:03.409Z,8.6
2019-02-23T12:31:03.720Z,8.6
2019-02-23T12:32:03.599Z,5
2019-02-23T12:33:03.001Z,5
2019-02-23T12:34:03.428Z,6.1
2019-02-23T12:35:03.788Z,6.1
2019-02-23T12:36:03.435Z,9.7
2019-02-23T12:37:03.915Z,7.2
2019-02-23T12:38:03.027Z,5
2019-02-23T12:39:03.931Z,8.6
2019-02-23T12:40:03.309Z,5
2019-02-23T12:41:02.940Z,6.1
2019-02-23T12:42:03.210Z,7.2
2019-02-23T12:43:03.437Z,7.2
2019-02-23T12:44:03.120Z,6.1
2019-02-23T12:45:04.011Z,2.5
2019-02-23T12:46:02.968Z,3.6
2019-02-23T12:47:03.703Z,7.2
2019-02-23T12:48:03.401Z,8.6
2019-02-23T12:49:03.148Z,6.1
2019-02-23T12:50:03.860Z,6.1
2019-02-23T12:51:03.513Z,3.6
2019-02-23T12:52:03.047Z,8.6
2019-02-23T12:53:03.786Z,11.2
2019-02-23T12:54:02.902Z,11.2
2019-02-23T12:55:03.349Z,8.6
2019-02-23T12:56:03.867Z,2.5
2019-02-23T12:57:03.037Z,9.7
2019-02-23T12:58:03.765Z,3.6
2019-02-23T12:59:03.066Z,5
2019-02-23T13:00:03.803Z,5
2019-02-23T13:01:03.319Z,5
2019-02-23T13:02:03.649Z,2.5
2019-02-23T13:03:03.169Z,2.5
2019-02-23T13:04:03.310Z,2.5
2019-02-23T13:05:04.134Z,2.5
2019-02-23T13:06:03.058Z,2.5
2019-02-23T13:07:03.673Z,2.5
2019-02-23T13:08:02.911Z,2.5
2019-02-23T13:09:03.401Z,5
2019-02-23T13:10:03.886Z,3.6
2019-02-23T13:11:02.887Z,7.2
2019-02-23T13:12:03.063Z,7.2
2019-02-23T13:13:03.236Z,9.7
2019-02-23T13:14:03.764Z,5
2019-02-23T13:15:03.351Z,6.1
2019-02-23T13:16:03.676Z,5
2019-02-23T13:17:03.060Z,6.1
2019-02-23T13:18:03.451Z,6.1
2019-02-23T13:19:03.247Z,5
2019-02-23T13:20:03.724Z,3.6
2019-02-23T13:21:03.990Z,12.2
2019-02-23T13:22:03.410Z,8.6
2019-02-23T13:23:02.898Z,5
2019-02-23T13:24:03.540Z,6.1
2019-02-23T13:25:03.045Z,7.2
2019-02-23T13:26:03.560Z,6.1
2019-02-23T13:27:03.090Z,11.2
2019-02-23T13:28:03.294Z,14.8
2019-02-23T13:29:03.232Z,11.2
2019-02-23T13:30:03.659Z,9.7
2019-02-23T13:31:03.012Z,6.1
2019-02-23T13:32:03.466Z,6.1
2019-02-23T13:33:02.700Z,7.2
2019-02-23T13:34:03.203Z,3.6
2019-02-23T13:35:03.462Z,7.2
2019-02-23T13:36:03.659Z,11.2
2019-02-23T13:37:03.377Z,8.6
2019-02-23T13:38:03.352Z,5
2019-02-23T13:39:04.044Z,8.6
2019-02-23T13:40:03.320Z,9.7
2019-02-23T13:41:03.632Z,6.1
2019-02-23T13:42:06.069Z,7.2
2019-02-23T13:43:03.790Z,9.7
2019-02-23T13:44:02.904Z,7.2
2019-02-23T13:45:03.592Z,6.1
2019-02-23T13:46:03.170Z,5
2019-02-23T13:47:03.489Z,5
2019-02-23T13:48:03.154Z,5
2019-02-23T13:49:03.481Z,6.1
2019-02-23T13:50:03.476Z,7.2
2019-02-23T13:51:03.695Z,6.1
2019-02-23T13:52:03.896Z,5
2019-02-23T13:53:03.602Z,9.7
2019-02-23T13:54:03.258Z,11.2
2019-02-23T13:55:03.788Z,11.2
2019-02-23T13:56:03.245Z,3.6
2019-02-23T13:57:03.474Z,6.1
2019-02-23T13:58:03.058Z,6.1
2019-02-23T13:59:03.425Z,5
2019-02-23T14:00:03.485Z,14.8
2019-02-23T14:01:03.627Z,5
2019-02-23T14:02:03.470Z,5
2019-02-23T14:03:03.704Z,6.1
2019-02-23T14:04:03.195Z,6.1
2019-02-23T14:05:03.707Z,9.7
2019-02-23T14:06:03.214Z,9.7
2019-02-23T14:07:03.265Z,6.1
2019-02-23T14:08:03.107Z,5
2019-02-23T14:09:03.275Z,11.2